sensor_id;sensor_type;location;lat;lon;timestamp;pressure;altitude;pressure_sealevel;temperature;humidity
8334;BME280;4204;43.004;23.052;2023-09-08T00:01:34;94315.13;;;20.32;100.00
8334;BME280;4204;43.004;23.052;2023-09-08T00:04:02;94317.56;;;20.18;100.00
8334;BME280;4204;43.004;23.052;2023-09-08T00:06:30;94316.16;;;19.82;100.00
8334;BME280;4204;43.004;23.052;2023-09-08T00:08:58;94315.72;;;19.80;100.00
8334;BME280;4204;43.004;23.052;2023-09-08T00:11:25;94320.06;;;19.66;100.00
8334;BME280;4204;43.004;23.052;2023-09-08T00:13:53;94318.59;;;19.68;100.00
8334;BME280;4204;43.004;23.052;2023-09-08T00:16:21;94325.63;;;19.73;100.00
8334;BME280;4204;43.004;23.052;2023-09-08T00:18:50;94323.06;;;19.80;100.00
8334;BME280;4204;43.004;23.052;2023-09-08T00:21:18;94313.19;;;19.49;100.00
8334;BME280;4204;43.004;23.052;2023-09-08T00:23:46;94321.19;;;19.26;100.00
8334;BME280;4204;43.004;23.052;2023-09-08T00:26:13;94320.50;;;19.29;100.00
8334;BME280;4204;43.004;23.052;2023-09-08T00:28:43;94317.31;;;19.24;100.00
8334;BME280;4204;43.004;23.052;2023-09-08T00:31:10;94316.84;;;19.38;100.00
8334;BME280;4204;43.004;23.052;2023-09-08T00:33:38;94312.44;;;19.49;100.00
8334;BME280;4204;43.004;23.052;2023-09-08T00:36:08;94312.72;;;19.63;100.00
8334;BME280;4204;43.004;23.052;2023-09-08T00:38:36;94311.66;;;19.67;100.00
8334;BME280;4204;43.004;23.052;2023-09-08T00:43:51;94317.47;;;19.69;100.00
8334;BME280;4204;43.004;23.052;2023-09-08T00:46:19;94313.41;;;19.60;100.00
8334;BME280;4204;43.004;23.052;2023-09-08T00:48:47;94317.84;;;19.49;100.00
8334;BME280;4204;43.004;23.052;2023-09-08T00:51:16;94318.25;;;19.51;100.00
8334;BME280;4204;43.004;23.052;2023-09-08T00:53:44;94321.81;;;19.35;100.00
8334;BME280;4204;43.004;23.052;2023-09-08T00:56:12;94313.53;;;19.28;100.00
8334;BME280;4204;43.004;23.052;2023-09-08T00:58:40;94315.38;;;19.24;100.00
8334;BME280;4204;43.004;23.052;2023-09-08T01:01:07;94314.03;;;19.15;100.00
8334;BME280;4204;43.004;23.052;2023-09-08T01:03:35;94320.59;;;19.14;100.00
8334;BME280;4204;43.004;23.052;2023-09-08T01:06:03;94318.31;;;19.16;100.00
8334;BME280;4204;43.004;23.052;2023-09-08T01:08:34;94317.59;;;19.19;100.00
8334;BME280;4204;43.004;23.052;2023-09-08T01:11:03;94312.41;;;19.10;100.00
8334;BME280;4204;43.004;23.052;2023-09-08T01:13:31;94304.44;;;18.98;100.00
8334;BME280;4204;43.004;23.052;2023-09-08T01:15:58;94309.84;;;18.98;100.00
8334;BME280;4204;43.004;23.052;2023-09-08T01:18:26;94308.19;;;18.94;100.00
8334;BME280;4204;43.004;23.052;2023-09-08T01:21:06;94321.53;;;19.06;100.00
8334;BME280;4204;43.004;23.052;2023-09-08T01:23:50;94309.41;;;18.96;100.00
8334;BME280;4204;43.004;23.052;2023-09-08T01:26:27;94316.38;;;18.97;100.00
8334;BME280;4204;43.004;23.052;2023-09-08T01:28:59;94315.34;;;18.86;100.00
8334;BME280;4204;43.004;23.052;2023-09-08T01:31:27;94307.28;;;18.71;100.00
8334;BME280;4204;43.004;23.052;2023-09-08T01:33:55;94316.34;;;18.63;100.00
8334;BME280;4204;43.004;23.052;2023-09-08T01:36:23;94305.31;;;18.52;100.00
8334;BME280;4204;43.004;23.052;2023-09-08T01:38:52;94313.16;;;18.57;100.00
8334;BME280;4204;43.004;23.052;2023-09-08T01:41:19;94311.84;;;18.51;100.00
8334;BME280;4204;43.004;23.052;2023-09-08T01:43:49;94301.31;;;18.62;100.00
8334;BME280;4204;43.004;23.052;2023-09-08T01:46:16;94311.16;;;18.54;100.00
8334;BME280;4204;43.004;23.052;2023-09-08T01:48:44;94306.41;;;18.47;100.00
8334;BME280;4204;43.004;23.052;2023-09-08T01:51:13;94320.44;;;18.41;100.00
8334;BME280;4204;43.004;23.052;2023-09-08T01:53:41;94317.22;;;18.35;100.00
8334;BME280;4204;43.004;23.052;2023-09-08T01:56:10;94312.28;;;18.53;100.00
8334;BME280;4204;43.004;23.052;2023-09-08T01:59:13;94319.66;;;18.56;100.00
8334;BME280;4204;43.004;23.052;2023-09-08T02:01:41;94321.25;;;18.41;100.00
8334;BME280;4204;43.004;23.052;2023-09-08T02:04:09;94319.22;;;18.38;100.00
8334;BME280;4204;43.004;23.052;2023-09-08T02:06:36;94313.88;;;18.23;100.00
8334;BME280;4204;43.004;23.052;2023-09-08T02:09:04;94315.66;;;18.19;100.00
8334;BME280;4204;43.004;23.052;2023-09-08T02:11:32;94308.63;;;17.99;100.00
8334;BME280;4204;43.004;23.052;2023-09-08T02:14:01;94313.16;;;17.95;100.00
8334;BME280;4204;43.004;23.052;2023-09-08T02:16:29;94317.72;;;17.78;100.00
8334;BME280;4204;43.004;23.052;2023-09-08T02:18:57;94315.94;;;17.55;100.00
8334;BME280;4204;43.004;23.052;2023-09-08T02:21:25;94304.47;;;17.30;100.00
8334;BME280;4204;43.004;23.052;2023-09-08T02:23:52;94311.22;;;16.84;100.00
8334;BME280;4204;43.004;23.052;2023-09-08T02:26:20;94312.16;;;16.76;100.00
8334;BME280;4204;43.004;23.052;2023-09-08T02:28:48;94300.09;;;16.46;100.00
8334;BME280;4204;43.004;23.052;2023-09-08T02:31:17;94302.91;;;16.50;100.00
8334;BME280;4204;43.004;23.052;2023-09-08T02:33:45;94297.28;;;16.18;100.00
8334;BME280;4204;43.004;23.052;2023-09-08T02:36:13;94300.75;;;16.31;100.00
8334;BME280;4204;43.004;23.052;2023-09-08T02:38:41;94293.13;;;16.45;100.00
8334;BME280;4204;43.004;23.052;2023-09-08T02:41:08;94291.00;;;16.75;100.00
8334;BME280;4204;43.004;23.052;2023-09-08T02:43:36;94296.47;;;16.78;100.00
8334;BME280;4204;43.004;23.052;2023-09-08T02:46:04;94285.16;;;16.85;100.00
8334;BME280;4204;43.004;23.052;2023-09-08T02:48:33;94287.47;;;16.98;100.00
8334;BME280;4204;43.004;23.052;2023-09-08T02:51:01;94293.66;;;16.87;100.00
8334;BME280;4204;43.004;23.052;2023-09-08T02:53:29;94281.53;;;16.93;100.00
8334;BME280;4204;43.004;23.052;2023-09-08T02:55:57;94283.56;;;16.96;100.00
8334;BME280;4204;43.004;23.052;2023-09-08T02:58:25;94279.38;;;17.11;100.00
8334;BME280;4204;43.004;23.052;2023-09-08T03:00:53;94283.59;;;17.12;100.00
8334;BME280;4204;43.004;23.052;2023-09-08T03:03:21;94283.78;;;16.91;100.00
8334;BME280;4204;43.004;23.052;2023-09-08T03:05:54;94278.00;;;16.77;100.00
8334;BME280;4204;43.004;23.052;2023-09-08T03:08:25;94281.19;;;16.67;100.00
8334;BME280;4204;43.004;23.052;2023-09-08T03:10:55;94288.34;;;16.63;100.00
8334;BME280;4204;43.004;23.052;2023-09-08T03:13:24;94280.38;;;16.66;100.00
8334;BME280;4204;43.004;23.052;2023-09-08T03:15:52;94282.94;;;16.75;100.00
8334;BME280;4204;43.004;23.052;2023-09-08T03:18:20;94278.00;;;16.77;100.00
8334;BME280;4204;43.004;23.052;2023-09-08T03:20:48;94290.53;;;16.85;100.00
8334;BME280;4204;43.004;23.052;2023-09-08T03:23:18;94283.81;;;16.79;100.00
8334;BME280;4204;43.004;23.052;2023-09-08T03:25:45;94283.59;;;16.72;100.00
8334;BME280;4204;43.004;23.052;2023-09-08T03:28:14;94288.78;;;16.65;100.00
8334;BME280;4204;43.004;23.052;2023-09-08T03:30:42;94288.56;;;16.34;100.00
8334;BME280;4204;43.004;23.052;2023-09-08T03:33:10;94289.69;;;16.33;100.00
8334;BME280;4204;43.004;23.052;2023-09-08T03:35:38;94282.97;;;16.14;100.00
8334;BME280;4204;43.004;23.052;2023-09-08T03:38:05;94286.56;;;16.18;100.00
8334;BME280;4204;43.004;23.052;2023-09-08T03:40:34;94276.28;;;15.96;100.00
8334;BME280;4204;43.004;23.052;2023-09-08T03:43:02;94273.13;;;15.94;100.00
8334;BME280;4204;43.004;23.052;2023-09-08T03:45:30;94284.31;;;15.96;100.00
8334;BME280;4204;43.004;23.052;2023-09-08T03:47:58;94279.28;;;15.95;100.00
8334;BME280;4204;43.004;23.052;2023-09-08T03:50:26;94275.47;;;16.08;100.00
8334;BME280;4204;43.004;23.052;2023-09-08T03:52:54;94269.56;;;15.78;100.00
8334;BME280;4204;43.004;23.052;2023-09-08T03:55:21;94266.63;;;15.95;100.00
8334;BME280;4204;43.004;23.052;2023-09-08T03:57:50;94272.59;;;16.13;100.00
8334;BME280;4204;43.004;23.052;2023-09-08T04:00:28;94277.84;;;16.34;100.00
8334;BME280;4204;43.004;23.052;2023-09-08T04:02:56;94277.94;;;16.37;100.00
8334;BME280;4204;43.004;23.052;2023-09-08T04:05:24;94285.78;;;16.42;100.00
8334;BME280;4204;43.004;23.052;2023-09-08T04:07:52;94289.69;;;16.45;100.00
8334;BME280;4204;43.004;23.052;2023-09-08T04:10:19;94291.69;;;16.60;100.00
8334;BME280;4204;43.004;23.052;2023-09-08T04:12:47;94293.72;;;16.63;100.00
8334;BME280;4204;43.004;23.052;2023-09-08T04:15:16;94290.13;;;16.71;100.00
8334;BME280;4204;43.004;23.052;2023-09-08T04:17:45;94292.59;;;16.64;100.00
8334;BME280;4204;43.004;23.052;2023-09-08T04:20:13;94293.03;;;16.66;100.00
8334;BME280;4204;43.004;23.052;2023-09-08T04:22:41;94296.53;;;16.54;100.00
8334;BME280;4204;43.004;23.052;2023-09-08T04:25:09;94293.63;;;16.59;100.00
8334;BME280;4204;43.004;23.052;2023-09-08T04:27:37;94294.63;;;16.55;100.00
8334;BME280;4204;43.004;23.052;2023-09-08T04:30:07;94295.28;;;16.52;100.00
8334;BME280;4204;43.004;23.052;2023-09-08T04:32:36;94298.19;;;16.59;100.00
8334;BME280;4204;43.004;23.052;2023-09-08T04:35:05;94302.13;;;16.61;100.00
8334;BME280;4204;43.004;23.052;2023-09-08T04:37:32;94297.97;;;16.52;100.00
8334;BME280;4204;43.004;23.052;2023-09-08T04:40:00;94300.88;;;16.47;100.00
8334;BME280;4204;43.004;23.052;2023-09-08T04:42:29;94299.75;;;16.48;100.00
8334;BME280;4204;43.004;23.052;2023-09-08T04:44:57;94302.56;;;16.51;100.00
8334;BME280;4204;43.004;23.052;2023-09-08T04:47:25;94298.31;;;16.50;100.00
8334;BME280;4204;43.004;23.052;2023-09-08T04:49:54;94302.13;;;16.49;100.00
8334;BME280;4204;43.004;23.052;2023-09-08T04:52:23;94302.78;;;16.46;100.00
8334;BME280;4204;43.004;23.052;2023-09-08T04:54:50;94302.53;;;16.39;100.00
8334;BME280;4204;43.004;23.052;2023-09-08T04:57:18;94296.84;;;16.41;100.00
8334;BME280;4204;43.004;23.052;2023-09-08T04:59:47;94300.66;;;16.52;100.00
8334;BME280;4204;43.004;23.052;2023-09-08T05:02:15;94302.78;;;16.58;100.00
8334;BME280;4204;43.004;23.052;2023-09-08T05:04:44;94298.06;;;16.55;100.00
8334;BME280;4204;43.004;23.052;2023-09-08T05:07:16;94295.50;;;16.47;100.00
8334;BME280;4204;43.004;23.052;2023-09-08T05:09:45;94296.63;;;16.46;100.00
8334;BME280;4204;43.004;23.052;2023-09-08T05:12:13;94299.41;;;16.37;100.00
8334;BME280;4204;43.004;23.052;2023-09-08T05:14:41;94301.66;;;16.35;100.00
8334;BME280;4204;43.004;23.052;2023-09-08T05:17:09;94298.41;;;16.42;100.00
8334;BME280;4204;43.004;23.052;2023-09-08T05:19:37;94306.59;;;16.57;100.00
8334;BME280;4204;43.004;23.052;2023-09-08T05:22:05;94298.06;;;16.67;100.00
8334;BME280;4204;43.004;23.052;2023-09-08T05:24:35;94309.88;;;16.90;100.00
8334;BME280;4204;43.004;23.052;2023-09-08T05:27:04;94298.84;;;17.08;100.00
8334;BME280;4204;43.004;23.052;2023-09-08T05:29:32;94313.25;;;17.27;100.00
8334;BME280;4204;43.004;23.052;2023-09-08T05:32:00;94309.81;;;17.54;100.00
8334;BME280;4204;43.004;23.052;2023-09-08T05:34:28;94308.94;;;17.66;100.00
8334;BME280;4204;43.004;23.052;2023-09-08T05:36:56;94311.31;;;17.83;100.00
8334;BME280;4204;43.004;23.052;2023-09-08T05:39:23;94312.34;;;17.94;100.00
8334;BME280;4204;43.004;23.052;2023-09-08T05:41:54;94314.03;;;18.14;100.00
8334;BME280;4204;43.004;23.052;2023-09-08T05:44:21;94315.41;;;18.24;100.00
8334;BME280;4204;43.004;23.052;2023-09-08T05:46:52;94317.31;;;18.39;100.00
8334;BME280;4204;43.004;23.052;2023-09-08T05:49:20;94306.19;;;18.56;100.00
8334;BME280;4204;43.004;23.052;2023-09-08T05:51:48;94314.25;;;18.72;100.00
8334;BME280;4204;43.004;23.052;2023-09-08T05:54:17;94321.09;;;18.85;100.00
8334;BME280;4204;43.004;23.052;2023-09-08T05:56:45;94312.09;;;18.96;100.00
8334;BME280;4204;43.004;23.052;2023-09-08T05:59:14;94317.94;;;19.17;100.00
8334;BME280;4204;43.004;23.052;2023-09-08T06:01:42;94323.56;;;19.28;100.00
8334;BME280;4204;43.004;23.052;2023-09-08T06:04:10;94318.75;;;19.37;100.00
8334;BME280;4204;43.004;23.052;2023-09-08T06:06:39;94317.41;;;19.47;100.00
8334;BME280;4204;43.004;23.052;2023-09-08T06:09:06;94315.41;;;19.63;100.00
8334;BME280;4204;43.004;23.052;2023-09-08T06:11:36;94323.75;;;19.77;100.00
8334;BME280;4204;43.004;23.052;2023-09-08T06:14:04;94315.91;;;19.91;100.00
8334;BME280;4204;43.004;23.052;2023-09-08T06:16:38;94312.75;;;20.08;100.00
8334;BME280;4204;43.004;23.052;2023-09-08T06:19:07;94325.66;;;20.18;100.00
8334;BME280;4204;43.004;23.052;2023-09-08T06:21:35;94321.72;;;20.35;100.00
8334;BME280;4204;43.004;23.052;2023-09-08T06:24:03;94326.94;;;20.47;100.00
8334;BME280;4204;43.004;23.052;2023-09-08T06:26:32;94323.69;;;20.60;100.00
8334;BME280;4204;43.004;23.052;2023-09-08T06:29:00;94328.34;;;20.63;100.00
8334;BME280;4204;43.004;23.052;2023-09-08T06:31:29;94336.22;;;20.72;100.00
8334;BME280;4204;43.004;23.052;2023-09-08T06:33:58;94337.81;;;20.76;100.00
8334;BME280;4204;43.004;23.052;2023-09-08T06:36:26;94336.75;;;20.81;100.00
8334;BME280;4204;43.004;23.052;2023-09-08T06:38:55;94339.19;;;20.89;100.00
8334;BME280;4204;43.004;23.052;2023-09-08T06:41:24;94339.69;;;20.98;100.00
8334;BME280;4204;43.004;23.052;2023-09-08T06:43:57;94337.50;;;21.04;100.00
8334;BME280;4204;43.004;23.052;2023-09-08T06:46:27;94346.22;;;21.20;100.00
8334;BME280;4204;43.004;23.052;2023-09-08T06:48:55;94324.72;;;21.31;100.00
8334;BME280;4204;43.004;23.052;2023-09-08T06:51:25;94356.31;;;21.53;100.00
8334;BME280;4204;43.004;23.052;2023-09-08T06:53:54;94356.06;;;21.65;100.00
8334;BME280;4204;43.004;23.052;2023-09-08T06:56:23;94349.25;;;21.78;100.00
8334;BME280;4204;43.004;23.052;2023-09-08T06:58:52;94347.47;;;21.89;100.00
8334;BME280;4204;43.004;23.052;2023-09-08T07:01:20;94355.28;;;21.98;100.00
8334;BME280;4204;43.004;23.052;2023-09-08T07:03:48;94346.53;;;22.11;100.00
8334;BME280;4204;43.004;23.052;2023-09-08T07:06:15;94348.56;;;22.18;100.00
8334;BME280;4204;43.004;23.052;2023-09-08T07:08:45;94346.75;;;22.32;100.00
8334;BME280;4204;43.004;23.052;2023-09-08T07:11:12;94337.44;;;22.30;100.00
8334;BME280;4204;43.004;23.052;2023-09-08T07:13:40;94338.63;;;22.32;100.00
8334;BME280;4204;43.004;23.052;2023-09-08T07:16:08;94348.41;;;22.47;100.00
8334;BME280;4204;43.004;23.052;2023-09-08T07:18:37;94346.63;;;22.59;100.00
8334;BME280;4204;43.004;23.052;2023-09-08T07:21:06;94348.53;;;22.58;100.00
8334;BME280;4204;43.004;23.052;2023-09-08T07:23:35;94347.41;;;22.63;100.00
8334;BME280;4204;43.004;23.052;2023-09-08T07:26:07;94353.66;;;22.67;100.00
8334;BME280;4204;43.004;23.052;2023-09-08T07:28:35;94347.81;;;22.61;100.00
8334;BME280;4204;43.004;23.052;2023-09-08T07:31:07;94344.19;;;22.50;100.00
8334;BME280;4204;43.004;23.052;2023-09-08T07:33:38;94359.47;;;22.69;100.00
8334;BME280;4204;43.004;23.052;2023-09-08T07:36:07;94350.31;;;22.84;100.00
8334;BME280;4204;43.004;23.052;2023-09-08T07:38:37;94337.56;;;22.91;100.00
8334;BME280;4204;43.004;23.052;2023-09-08T07:41:07;94340.31;;;22.98;100.00
8334;BME280;4204;43.004;23.052;2023-09-08T07:43:35;94347.34;;;23.03;100.00
8334;BME280;4204;43.004;23.052;2023-09-08T07:46:07;94343.78;;;22.95;100.00
8334;BME280;4204;43.004;23.052;2023-09-08T07:48:35;94339.16;;;22.99;100.00
8334;BME280;4204;43.004;23.052;2023-09-08T07:51:03;94334.59;;;23.10;100.00
8334;BME280;4204;43.004;23.052;2023-09-08T07:53:30;94332.25;;;23.09;100.00
8334;BME280;4204;43.004;23.052;2023-09-08T07:55:58;94335.84;;;23.27;100.00
8334;BME280;4204;43.004;23.052;2023-09-08T07:58:28;94330.13;;;23.39;100.00
8334;BME280;4204;43.004;23.052;2023-09-08T08:00:55;94323.56;;;23.47;100.00
8334;BME280;4204;43.004;23.052;2023-09-08T08:03:27;94333.22;;;23.41;100.00
8334;BME280;4204;43.004;23.052;2023-09-08T08:05:56;94329.38;;;23.53;100.00
8334;BME280;4204;43.004;23.052;2023-09-08T08:08:24;94349.16;;;23.50;100.00
8334;BME280;4204;43.004;23.052;2023-09-08T08:10:52;94344.44;;;23.36;100.00
8334;BME280;4204;43.004;23.052;2023-09-08T08:13:19;94336.72;;;23.38;100.00
8334;BME280;4204;43.004;23.052;2023-09-08T08:15:49;94332.09;;;23.49;100.00
8334;BME280;4204;43.004;23.052;2023-09-08T08:18:16;94327.78;;;23.41;100.00
8334;BME280;4204;43.004;23.052;2023-09-08T08:20:44;94332.81;;;23.36;100.00
8334;BME280;4204;43.004;23.052;2023-09-08T08:23:12;94330.50;;;23.45;100.00
8334;BME280;4204;43.004;23.052;2023-09-08T08:25:40;94330.59;;;23.62;100.00
8334;BME280;4204;43.004;23.052;2023-09-08T08:28:07;94333.72;;;23.71;100.00
8334;BME280;4204;43.004;23.052;2023-09-08T08:30:35;94326.41;;;23.82;100.00
8334;BME280;4204;43.004;23.052;2023-09-08T08:33:04;94323.31;;;23.94;100.00
8334;BME280;4204;43.004;23.052;2023-09-08T08:35:32;94328.75;;;23.94;100.00
8334;BME280;4204;43.004;23.052;2023-09-08T08:38:00;94315.63;;;24.03;100.00
8334;BME280;4204;43.004;23.052;2023-09-08T08:40:29;94329.63;;;24.20;100.00
8334;BME280;4204;43.004;23.052;2023-09-08T08:42:57;94332.34;;;24.13;100.00
8334;BME280;4204;43.004;23.052;2023-09-08T08:45:25;94323.81;;;24.14;100.00
8334;BME280;4204;43.004;23.052;2023-09-08T08:47:53;94318.34;;;24.03;100.00
8334;BME280;4204;43.004;23.052;2023-09-08T08:50:24;94320.69;;;24.30;100.00
8334;BME280;4204;43.004;23.052;2023-09-08T08:52:51;94324.59;;;24.36;100.00
8334;BME280;4204;43.004;23.052;2023-09-08T08:55:19;94324.59;;;24.36;100.00
8334;BME280;4204;43.004;23.052;2023-09-08T08:57:48;94321.47;;;24.34;100.00
8334;BME280;4204;43.004;23.052;2023-09-08T09:00:16;94296.25;;;24.58;100.00
8334;BME280;4204;43.004;23.052;2023-09-08T09:02:45;94319.19;;;24.64;100.00
8334;BME280;4204;43.004;23.052;2023-09-08T09:05:15;94297.03;;;24.51;100.00
8334;BME280;4204;43.004;23.052;2023-09-08T09:07:44;94307.91;;;24.79;100.00
8334;BME280;4204;43.004;23.052;2023-09-08T09:10:13;94313.75;;;24.88;100.00
8334;BME280;4204;43.004;23.052;2023-09-08T09:12:41;94295.88;;;24.66;100.00
8334;BME280;4204;43.004;23.052;2023-09-08T09:15:10;94308.69;;;24.91;100.00
8334;BME280;4204;43.004;23.052;2023-09-08T09:17:38;94321.94;;;24.85;100.00
8334;BME280;4204;43.004;23.052;2023-09-08T09:20:16;94309.06;;;25.03;100.00
8334;BME280;4204;43.004;23.052;2023-09-08T09:22:46;94300.91;;;24.96;100.00
8334;BME280;4204;43.004;23.052;2023-09-08T09:25:25;94313.31;;;25.04;100.00
8334;BME280;4204;43.004;23.052;2023-09-08T09:27:54;94302.84;;;25.10;100.00
8334;BME280;4204;43.004;23.052;2023-09-08T09:30:23;94321.50;;;25.01;100.00
8334;BME280;4204;43.004;23.052;2023-09-08T09:32:59;94313.75;;;24.81;100.00
8334;BME280;4204;43.004;23.052;2023-09-08T09:35:40;94312.19;;;24.45;100.00
8334;BME280;4204;43.004;23.052;2023-09-08T09:38:10;94302.06;;;24.46;100.00
8334;BME280;4204;43.004;23.052;2023-09-08T09:40:38;94299.38;;;24.60;100.00
8334;BME280;4204;43.004;23.052;2023-09-08T09:43:07;94302.06;;;24.67;100.00
8334;BME280;4204;43.004;23.052;2023-09-08T09:45:36;94308.28;;;24.67;100.00
8334;BME280;4204;43.004;23.052;2023-09-08T09:48:05;94297.78;;;24.73;100.00
8334;BME280;4204;43.004;23.052;2023-09-08T09:50:35;94284.59;;;24.93;100.00
8334;BME280;4204;43.004;23.052;2023-09-08T09:53:08;94283.78;;;25.10;100.00
8334;BME280;4204;43.004;23.052;2023-09-08T09:55:39;94282.22;;;25.09;100.00
8334;BME280;4204;43.004;23.052;2023-09-08T09:58:08;94284.91;;;25.26;100.00
8334;BME280;4204;43.004;23.052;2023-09-08T10:00:37;94293.84;;;25.30;100.00
8334;BME280;4204;43.004;23.052;2023-09-08T10:03:06;94283.78;;;25.10;100.00
8334;BME280;4204;43.004;23.052;2023-09-08T10:05:34;94281.88;;;24.82;100.00
8334;BME280;4204;43.004;23.052;2023-09-08T10:08:02;94284.19;;;24.66;100.00
8334;BME280;4204;43.004;23.052;2023-09-08T10:10:32;94274.88;;;24.63;100.00
8334;BME280;4204;43.004;23.052;2023-09-08T10:13:05;94273.28;;;24.73;100.00
8334;BME280;4204;43.004;23.052;2023-09-08T10:15:34;94277.19;;;24.79;100.00
8334;BME280;4204;43.004;23.052;2023-09-08T10:18:04;94271.38;;;24.70;100.00
8334;BME280;4204;43.004;23.052;2023-09-08T10:20:33;94270.22;;;24.50;100.00
8334;BME280;4204;43.004;23.052;2023-09-08T10:23:06;94269.81;;;24.62;100.00
8334;BME280;4204;43.004;23.052;2023-09-08T10:25:43;94272.16;;;24.74;100.00
8334;BME280;4204;43.004;23.052;2023-09-08T10:28:14;94256.63;;;24.78;100.00
8334;BME280;4204;43.004;23.052;2023-09-08T10:30:42;94259.28;;;24.96;100.00
8334;BME280;4204;43.004;23.052;2023-09-08T10:36:38;94261.19;;;25.16;100.00
8334;BME280;4204;43.004;23.052;2023-09-08T10:39:28;94258.44;;;25.30;100.00
8334;BME280;4204;43.004;23.052;2023-09-08T10:42:22;94259.59;;;25.26;100.00
8334;BME280;4204;43.004;23.052;2023-09-08T10:44:57;94272.06;;;25.23;100.00
8334;BME280;4204;43.004;23.052;2023-09-08T10:47:31;94254.13;;;25.29;100.00
8334;BME280;4204;43.004;23.052;2023-09-08T10:50:01;94254.50;;;25.49;100.00
8334;BME280;4204;43.004;23.052;2023-09-08T10:52:30;94252.91;;;25.55;100.00
8334;BME280;4204;43.004;23.052;2023-09-08T10:54:59;94249.84;;;25.42;100.00
8334;BME280;4204;43.004;23.052;2023-09-08T10:57:28;94256.84;;;25.36;100.00
8334;BME280;4204;43.004;23.052;2023-09-08T11:00:01;94258.38;;;25.48;100.00
8334;BME280;4204;43.004;23.052;2023-09-08T11:02:33;94256.47;;;25.34;100.00
8334;BME280;4204;43.004;23.052;2023-09-08T11:05:02;94239.41;;;25.20;100.00
8334;BME280;4204;43.004;23.052;2023-09-08T11:07:31;94253.06;;;25.06;100.00
8334;BME280;4204;43.004;23.052;2023-09-08T11:09:59;94246.88;;;24.91;100.00
8334;BME280;4204;43.004;23.052;2023-09-08T11:12:28;94246.09;;;24.91;100.00
8334;BME280;4204;43.004;23.052;2023-09-08T11:14:56;94242.47;;;25.25;100.00
8334;BME280;4204;43.004;23.052;2023-09-08T11:17:30;94242.84;;;25.34;100.00
8334;BME280;4204;43.004;23.052;2023-09-08T11:19:58;94235.50;;;25.24;100.00
8334;BME280;4204;43.004;23.052;2023-09-08T11:22:26;94235.47;;;25.31;100.00
8334;BME280;4204;43.004;23.052;2023-09-08T11:24:56;94246.34;;;25.31;100.00
8334;BME280;4204;43.004;23.052;2023-09-08T11:27:24;94231.56;;;25.32;100.00
8334;BME280;4204;43.004;23.052;2023-09-08T11:29:52;94227.25;;;25.45;100.00
8334;BME280;4204;43.004;23.052;2023-09-08T11:32:20;94235.03;;;25.47;100.00
8334;BME280;4204;43.004;23.052;2023-09-08T11:34:49;94237.66;;;25.64;100.00
8334;BME280;4204;43.004;23.052;2023-09-08T11:37:17;94224.78;;;25.68;100.00
8334;BME280;4204;43.004;23.052;2023-09-08T11:39:46;94231.06;;;25.65;100.00
8334;BME280;4204;43.004;23.052;2023-09-08T11:42:15;94231.47;;;25.53;100.00
8334;BME280;4204;43.004;23.052;2023-09-08T11:44:43;94222.47;;;25.67;100.00
8334;BME280;4204;43.004;23.052;2023-09-08T11:47:11;94223.97;;;25.75;100.00
8334;BME280;4204;43.004;23.052;2023-09-08T11:49:39;94230.59;;;25.74;100.00
8334;BME280;4204;43.004;23.052;2023-09-08T11:52:09;94207.22;;;25.80;100.00
8334;BME280;4204;43.004;23.052;2023-09-08T11:54:37;94210.22;;;25.93;100.00
8334;BME280;4204;43.004;23.052;2023-09-08T11:57:05;94218.56;;;25.68;100.00
8334;BME280;4204;43.004;23.052;2023-09-08T11:59:35;94209.09;;;25.87;100.00
8334;BME280;4204;43.004;23.052;2023-09-08T12:02:03;94204.03;;;25.92;100.00
8334;BME280;4204;43.004;23.052;2023-09-08T12:04:35;94201.19;;;26.10;100.00
8334;BME280;4204;43.004;23.052;2023-09-08T12:07:03;94194.94;;;26.06;100.00
8334;BME280;4204;43.004;23.052;2023-09-08T12:09:32;94194.13;;;26.19;100.00
8334;BME280;4204;43.004;23.052;2023-09-08T12:12:02;94190.97;;;26.21;100.00
8334;BME280;4204;43.004;23.052;2023-09-08T12:14:30;94182.75;;;26.24;100.00
8334;BME280;4204;43.004;23.052;2023-09-08T12:17:05;94187.63;;;25.96;100.00
8334;BME280;4204;43.004;23.052;2023-09-08T12:19:34;94195.84;;;25.89;100.00
8334;BME280;4204;43.004;23.052;2023-09-08T12:22:04;94197.38;;;25.93;100.00
8334;BME280;4204;43.004;23.052;2023-09-08T12:24:56;94171.94;;;26.17;100.00
8334;BME280;4204;43.004;23.052;2023-09-08T12:27:25;94180.19;;;26.00;100.00
8334;BME280;4204;43.004;23.052;2023-09-08T12:29:57;94180.25;;;25.93;100.00
8334;BME280;4204;43.004;23.052;2023-09-08T12:32:29;94177.56;;;25.89;100.00
8334;BME280;4204;43.004;23.052;2023-09-08T12:34:57;94177.09;;;25.98;100.00
8334;BME280;4204;43.004;23.052;2023-09-08T12:37:28;94192.69;;;25.97;100.00
8334;BME280;4204;43.004;23.052;2023-09-08T12:39:57;94178.75;;;25.88;100.00
8334;BME280;4204;43.004;23.052;2023-09-08T12:42:27;94168.50;;;25.44;100.00
8334;BME280;4204;43.004;23.052;2023-09-08T12:44:55;94176.31;;;25.42;100.00
8334;BME280;4204;43.004;23.052;2023-09-08T12:47:23;94161.81;;;25.59;100.00
8334;BME280;4204;43.004;23.052;2023-09-08T12:49:51;94175.00;;;25.64;100.00
8334;BME280;4204;43.004;23.052;2023-09-08T12:52:21;94167.19;;;25.66;100.00
8334;BME280;4204;43.004;23.052;2023-09-08T12:54:49;94185.25;;;25.43;100.00
8334;BME280;4204;43.004;23.052;2023-09-08T12:57:18;94174.34;;;25.36;100.00
8334;BME280;4204;43.004;23.052;2023-09-08T12:59:46;94167.44;;;25.17;100.00
8334;BME280;4204;43.004;23.052;2023-09-08T13:02:14;94159.63;;;25.26;100.00
8334;BME280;4204;43.004;23.052;2023-09-08T13:04:41;94163.00;;;25.51;100.00
8334;BME280;4204;43.004;23.052;2023-09-08T13:07:14;94160.72;;;25.46;100.00
8334;BME280;4204;43.004;23.052;2023-09-08T13:09:42;94172.78;;;25.38;100.00
8334;BME280;4204;43.004;23.052;2023-09-08T13:12:10;94170.56;;;25.19;100.00
8334;BME280;4204;43.004;23.052;2023-09-08T13:14:40;94168.59;;;25.16;100.00
8334;BME280;4204;43.004;23.052;2023-09-08T13:17:10;94169.06;;;25.04;100.00